createdAt,value
2023-10-04T00:01:38.983Z,54.46
2023-10-04T00:04:44.932Z,54.58
2023-10-04T00:07:50.509Z,54.61
2023-10-04T00:10:55.278Z,54.68
2023-10-04T00:13:57.826Z,54.79
2023-10-04T00:17:01.229Z,54.42
2023-10-04T00:20:08.980Z,54.54
2023-10-04T00:23:14.246Z,54.84
2023-10-04T00:26:19.926Z,54.65
2023-10-04T00:29:22.495Z,54.65
2023-10-04T00:32:25.177Z,54.60
2023-10-04T00:35:28.530Z,54.17
2023-10-04T00:38:31.842Z,54.40
2023-10-04T00:41:36.624Z,54.75
2023-10-04T00:44:39.154Z,54.36
2023-10-04T00:47:43.368Z,54.23
2023-10-04T00:50:46.949Z,54.18
2023-10-04T00:53:49.577Z,54.34
2023-10-04T00:56:53.967Z,54.63
2023-10-04T00:59:57.237Z,54.37
2023-10-04T01:03:00.688Z,54.47
2023-10-04T01:06:04.490Z,54.37
2023-10-04T01:09:07.704Z,54.42
2023-10-04T01:12:11.879Z,54.47
2023-10-04T01:15:27.185Z,54.23
2023-10-04T01:18:31.413Z,54.23
2023-10-04T01:21:34.768Z,54.05
2023-10-04T01:24:42.429Z,54.41
2023-10-04T01:27:45.421Z,54.40
2023-10-04T01:30:50.083Z,54.30
2023-10-04T01:33:53.336Z,54.42
2023-10-04T01:36:55.935Z,53.99
2023-10-04T01:40:01.655Z,54.16
2023-10-04T01:43:11.390Z,54.22
2023-10-04T01:46:14.427Z,54.08
2023-10-04T01:49:16.971Z,54.28
2023-10-04T01:52:19.570Z,54.53
2023-10-04T01:55:23.531Z,54.24
2023-10-04T01:58:26.899Z,54.43
2023-10-04T02:01:29.535Z,54.20
2023-10-04T02:04:32.132Z,54.34
2023-10-04T02:07:34.727Z,54.21
2023-10-04T02:10:38.907Z,54.26
2023-10-04T02:13:43.346Z,54.04
2023-10-04T02:16:46.001Z,54.36
2023-10-04T02:19:48.621Z,53.92
2023-10-04T02:22:51.495Z,54.40
2023-10-04T02:25:55.503Z,54.20
2023-10-04T02:28:58.358Z,53.92
2023-10-04T02:32:01.156Z,53.97
2023-10-04T02:35:06.868Z,53.97
2023-10-04T02:38:17.461Z,54.08
2023-10-04T02:41:21.402Z,54.35
2023-10-04T02:44:24.055Z,53.95
2023-10-04T02:47:27.276Z,54.09
2023-10-04T02:50:30.821Z,54.14
2023-10-04T02:53:33.397Z,54.01
2023-10-04T02:56:46.651Z,54.06
2023-10-04T02:59:49.707Z,53.90
2023-10-04T03:02:54.208Z,54.17
2023-10-04T03:05:57.311Z,54.09
2023-10-04T03:08:59.886Z,53.93
2023-10-04T03:12:04.567Z,54.05
2023-10-04T03:15:08.891Z,54.00
2023-10-04T03:18:16.695Z,53.89
2023-10-04T03:21:21.687Z,54.28
2023-10-04T03:24:24.550Z,54.01
2023-10-04T03:27:28.499Z,53.92
2023-10-04T03:30:33.255Z,53.91
2023-10-04T03:33:36.909Z,53.79
2023-10-04T03:36:40.574Z,53.94
2023-10-04T03:39:46.861Z,54.23
2023-10-04T03:42:50.928Z,54.01
2023-10-04T03:45:53.557Z,54.28
2023-10-04T03:48:57.233Z,54.21
2023-10-04T03:51:59.798Z,53.90
2023-10-04T03:55:03.544Z,53.70
2023-10-04T03:58:07.984Z,54.41
2023-10-04T04:01:11.493Z,53.99
2023-10-04T04:04:16.195Z,54.26
2023-10-04T04:07:19.115Z,54.34
2023-10-04T04:10:23.086Z,54.05
2023-10-04T04:13:26.974Z,54.28
2023-10-04T04:16:29.671Z,54.25
2023-10-04T04:19:32.425Z,54.34
2023-10-04T04:22:35.925Z,53.97
2023-10-04T04:25:41.692Z,54.00
2023-10-04T04:28:45.860Z,54.22
2023-10-04T04:31:49.586Z,54.33
2023-10-04T04:34:52.188Z,53.99
2023-10-04T04:37:57.007Z,53.95
2023-10-04T04:41:04.866Z,54.13
2023-10-04T04:44:09.300Z,54.12
2023-10-04T04:47:13.242Z,54.47
2023-10-04T04:50:17.580Z,54.47
2023-10-04T04:53:22.946Z,54.30
2023-10-04T04:56:26.004Z,54.46
2023-10-04T04:59:30.066Z,54.38
2023-10-04T05:02:33.415Z,54.45
2023-10-04T05:05:36.094Z,54.30
2023-10-04T05:08:39.029Z,54.47
2023-10-04T05:11:41.618Z,54.37
2023-10-04T05:14:45.608Z,54.42
2023-10-04T05:17:51.222Z,54.47
2023-10-04T05:20:54.888Z,54.45
2023-10-04T05:23:57.735Z,54.68
2023-10-04T05:27:00.348Z,54.42
2023-10-04T05:30:05.375Z,54.64
2023-10-04T05:33:08.726Z,54.58
2023-10-04T05:36:11.383Z,54.34
2023-10-04T05:39:15.940Z,54.65
2023-10-04T05:42:18.666Z,54.52
2023-10-04T05:45:22.877Z,54.28
2023-10-04T05:48:27.772Z,54.60
2023-10-04T05:51:31.192Z,54.48
2023-10-04T05:54:33.783Z,54.34
2023-10-04T05:57:36.621Z,54.33
2023-10-04T06:00:41.741Z,54.57
2023-10-04T06:03:45.813Z,55.13
2023-10-04T06:06:49.342Z,55.14
2023-10-04T06:09:51.966Z,55.25
2023-10-04T06:12:55.436Z,55.06
2023-10-04T06:16:00.329Z,54.84
2023-10-04T06:19:10.181Z,54.71
2023-10-04T06:22:22.405Z,54.58
2023-10-04T06:25:26.414Z,54.65
2023-10-04T06:28:29.843Z,54.65
2023-10-04T06:31:33.895Z,54.66
2023-10-04T06:34:36.530Z,54.40
2023-10-04T06:37:39.050Z,54.28
2023-10-04T06:40:43.497Z,54.74
2023-10-04T06:43:47.348Z,54.42
2023-10-04T06:46:51.260Z,54.46
2023-10-04T06:49:53.986Z,54.37
2023-10-04T06:52:57.719Z,54.18
2023-10-04T06:56:00.235Z,54.34
2023-10-04T06:59:03.225Z,54.69
2023-10-04T07:02:07.721Z,54.54
2023-10-04T07:05:11.224Z,54.75
2023-10-04T07:08:17.160Z,54.30
2023-10-04T07:11:20.222Z,54.20
2023-10-04T07:14:23.226Z,54.58
2023-10-04T07:17:27.549Z,54.36
2023-10-04T07:20:30.914Z,54.60
2023-10-04T07:23:42.924Z,54.83
2023-10-04T07:26:46.713Z,54.68
2023-10-04T07:29:49.523Z,54.41
2023-10-04T07:32:54.497Z,54.73
2023-10-04T07:35:57.581Z,54.57
2023-10-04T07:39:00.261Z,54.33
2023-10-04T07:42:03.553Z,54.64
2023-10-04T07:45:08.982Z,54.18
2023-10-04T07:48:16.641Z,54.19
2023-10-04T07:51:19.748Z,54.21
2023-10-04T07:54:22.528Z,54.29
2023-10-04T07:57:26.170Z,54.03
2023-10-04T08:00:29.294Z,53.43
2023-10-04T08:03:33.822Z,53.27
2023-10-04T08:06:37.210Z,53.45
2023-10-04T08:09:40.360Z,53.48
2023-10-04T08:12:44.053Z,53.11
2023-10-04T08:15:47.791Z,52.92
2023-10-04T08:18:52.886Z,52.72
2023-10-04T08:21:59.399Z,52.53
2023-10-04T08:25:06.011Z,52.66
2023-10-04T08:28:11.467Z,52.31
2023-10-04T08:31:14.961Z,52.40
2023-10-04T08:34:19.725Z,52.29
2023-10-04T08:37:23.082Z,51.91
2023-10-04T08:40:28.158Z,51.63
2023-10-04T08:43:32.140Z,51.05
2023-10-04T08:46:38.736Z,50.98
2023-10-04T08:49:51.730Z,50.47
2023-10-04T08:53:04.498Z,49.94
2023-10-04T08:56:13.079Z,49.52
2023-10-04T08:59:16.052Z,49.54
2023-10-04T09:02:21.925Z,49.10
2023-10-04T09:05:29.797Z,49.00
2023-10-04T09:08:33.349Z,48.45
2023-10-04T09:11:35.996Z,48.00
2023-10-04T09:14:38.696Z,47.74
2023-10-04T09:17:48.123Z,48.06
2023-10-04T09:20:52.165Z,47.59
2023-10-04T09:24:08.076Z,47.48
2023-10-04T09:27:10.894Z,47.68
2023-10-04T09:30:40.718Z,47.04
2023-10-04T09:33:45.522Z,46.60
2023-10-04T09:36:49.697Z,46.31
2023-10-04T09:40:08.183Z,46.12
2023-10-04T09:43:10.970Z,46.30
2023-10-04T09:46:14.201Z,46.53
2023-10-04T09:49:17.492Z,46.59
2023-10-04T09:52:23.435Z,46.03
2023-10-04T09:55:27.860Z,46.47
2023-10-04T09:58:32.457Z,46.60
2023-10-04T10:01:36.189Z,46.62
2023-10-04T10:04:44.913Z,47.08
2023-10-04T10:07:53.031Z,46.09
2023-10-04T10:10:57.317Z,46.19
2023-10-04T10:14:00.914Z,46.29
2023-10-04T10:17:04.213Z,45.53
2023-10-04T10:20:10.932Z,45.67
2023-10-04T10:23:15.799Z,45.54
2023-10-04T10:26:22.401Z,47.11
2023-10-04T10:29:30.536Z,48.01
2023-10-04T10:32:33.547Z,48.38
2023-10-04T10:36:01.052Z,48.20
2023-10-04T10:39:21.070Z,48.29
2023-10-04T10:42:26.031Z,48.11
2023-10-04T10:45:29.797Z,48.26
2023-10-04T10:48:35.317Z,48.64
2023-10-04T10:51:45.501Z,48.66
2023-10-04T10:54:51.434Z,48.84
2023-10-04T11:00:57.820Z,49.33
2023-10-04T11:04:01.281Z,49.33
2023-10-04T11:07:04.232Z,49.45
2023-10-04T11:10:09.618Z,49.67
2023-10-04T11:13:19.395Z,49.73
2023-10-04T11:16:22.894Z,49.92
2023-10-04T11:19:26.480Z,50.07
2023-10-04T11:22:30.375Z,49.89
2023-10-04T11:25:34.336Z,49.71
2023-10-04T11:28:37.128Z,49.96
2023-10-04T11:31:46.082Z,49.69
2023-10-04T11:34:49.502Z,49.81
2023-10-04T11:37:52.952Z,50.05
2023-10-04T11:40:57.200Z,50.06
2023-10-04T11:44:04.171Z,50.46
2023-10-04T11:47:10.429Z,50.25
2023-10-04T11:50:14.789Z,50.65
2023-10-04T11:53:31.779Z,50.42
2023-10-04T11:56:41.911Z,50.49
2023-10-04T11:59:44.556Z,50.53
2023-10-04T12:02:47.271Z,50.45
2023-10-04T12:05:50.061Z,50.59
2023-10-04T12:08:56.769Z,50.43
2023-10-04T12:12:03.271Z,50.40
2023-10-04T12:15:08.896Z,50.31
2023-10-04T12:18:11.647Z,50.12
2023-10-04T12:21:16.199Z,50.19
2023-10-04T12:24:18.913Z,49.89
2023-10-04T12:27:23.652Z,50.02
2023-10-04T12:30:29.269Z,50.28
2023-10-04T12:33:32.428Z,49.88
2023-10-04T12:36:55.103Z,50.13
2023-10-04T12:39:59.175Z,50.30
2023-10-04T12:43:03.346Z,50.40
2023-10-04T12:46:06.181Z,50.42
2023-10-04T12:49:09.298Z,50.68
2023-10-04T12:52:12.779Z,50.92
2023-10-04T12:55:15.992Z,51.01
2023-10-04T12:58:21.344Z,51.10
2023-10-04T13:01:25.174Z,50.87
2023-10-04T13:04:28.887Z,50.87
2023-10-04T13:07:32.192Z,50.89
2023-10-04T13:10:37.985Z,51.14
2023-10-04T13:13:43.486Z,50.74
2023-10-04T13:16:47.251Z,50.89
2023-10-04T13:19:49.903Z,51.00
2023-10-04T13:22:53.075Z,50.76
2023-10-04T13:25:56.116Z,50.95
2023-10-04T13:29:00.265Z,50.85
2023-10-04T13:32:03.837Z,50.53
2023-10-04T13:35:08.101Z,50.69
2023-10-04T13:38:10.953Z,50.93
2023-10-04T13:41:14.638Z,50.69
2023-10-04T13:44:19.634Z,51.23
2023-10-04T13:47:22.334Z,50.91
2023-10-04T13:50:25.841Z,50.95
2023-10-04T13:53:30.017Z,51.22
2023-10-04T13:56:33.242Z,51.24
2023-10-04T13:59:37.252Z,51.12
2023-10-04T14:02:40.425Z,51.19
2023-10-04T14:05:43.310Z,51.05
2023-10-04T14:08:46.273Z,51.30
2023-10-04T14:11:49.146Z,51.28
2023-10-04T14:14:53.197Z,51.32
2023-10-04T14:17:56.198Z,51.33
2023-10-04T14:20:59.798Z,51.04
2023-10-04T14:24:02.373Z,51.49
2023-10-04T14:27:05.251Z,51.12
2023-10-04T14:30:13.082Z,51.35
2023-10-04T14:33:15.774Z,51.21
2023-10-04T14:36:18.436Z,51.36
2023-10-04T14:39:24.674Z,51.25
2023-10-04T14:42:27.473Z,51.41
2023-10-04T14:45:32.418Z,51.48
2023-10-04T14:48:35.205Z,51.52
2023-10-04T14:51:37.795Z,51.40
2023-10-04T14:54:40.553Z,51.46
2023-10-04T14:57:43.275Z,51.55
2023-10-04T15:00:54.313Z,51.42
2023-10-04T15:03:58.719Z,51.67
2023-10-04T15:07:01.689Z,52.22
2023-10-04T15:10:05.786Z,52.29
2023-10-04T15:13:09.215Z,52.19
2023-10-04T15:16:15.838Z,52.62
2023-10-04T15:19:18.514Z,52.49
2023-10-04T15:22:21.813Z,53.15
2023-10-04T15:25:25.752Z,52.95
2023-10-04T15:28:28.346Z,52.89
2023-10-04T15:31:32.650Z,52.62
2023-10-04T15:34:35.643Z,53.09
2023-10-04T15:37:38.195Z,53.43
2023-10-04T15:40:42.485Z,53.18
2023-10-04T15:43:45.661Z,51.83
2023-10-04T15:46:49.658Z,52.54
2023-10-04T15:49:52.249Z,52.28
2023-10-04T15:52:54.818Z,52.45
2023-10-04T15:55:58.074Z,52.07
2023-10-04T15:59:01.192Z,52.11
2023-10-04T16:02:05.458Z,51.88
2023-10-04T16:05:12.454Z,52.08
2023-10-04T16:08:15.201Z,51.87
2023-10-04T16:11:17.887Z,51.98
2023-10-04T16:14:20.595Z,51.76
2023-10-04T16:17:24.796Z,52.00
2023-10-04T16:20:27.436Z,51.74
2023-10-04T16:23:30.662Z,51.95
2023-10-04T16:26:33.220Z,52.06
2023-10-04T16:29:35.879Z,51.89
2023-10-04T16:32:40.021Z,51.95
2023-10-04T16:35:42.738Z,52.13
2023-10-04T16:38:45.459Z,52.01
2023-10-04T16:41:48.018Z,51.85
2023-10-04T16:44:52.377Z,52.16
2023-10-04T16:47:56.623Z,51.89
2023-10-04T16:50:59.398Z,51.79
2023-10-04T16:54:02.038Z,51.95
2023-10-04T16:57:05.661Z,51.72
2023-10-04T17:00:11.324Z,51.73
2023-10-04T17:03:15.231Z,51.82
2023-10-04T17:06:17.987Z,51.92
2023-10-04T17:09:20.607Z,51.58
2023-10-04T17:12:25.441Z,51.86
2023-10-04T17:15:29.488Z,51.95
2023-10-04T17:18:34.123Z,51.67
2023-10-04T17:21:37.373Z,51.83
2023-10-04T17:24:40.968Z,52.40
2023-10-04T17:27:44.994Z,52.09
2023-10-04T17:30:47.821Z,51.96
2023-10-04T17:33:51.818Z,52.10
2023-10-04T17:36:54.540Z,52.18
2023-10-04T17:39:57.312Z,52.19
2023-10-04T17:43:01.232Z,52.13
2023-10-04T17:46:04.742Z,52.36
2023-10-04T17:49:12.946Z,52.19
2023-10-04T17:52:18.929Z,52.23
2023-10-04T18:07:29.238Z,52.61
2023-10-04T18:32:29.553Z,52.39
2023-10-04T18:35:32.558Z,52.33
2023-10-04T18:38:35.503Z,52.61
2023-10-04T18:41:39.437Z,52.86
2023-10-04T18:44:42.126Z,52.48
2023-10-04T18:47:48.302Z,53.07
2023-10-04T18:50:51.902Z,52.82
2023-10-04T18:54:04.159Z,52.79
2023-10-04T18:57:23.893Z,52.88
2023-10-04T19:00:41.000Z,52.67
2023-10-04T19:03:54.389Z,52.72
2023-10-04T19:07:00.529Z,52.92
2023-10-04T19:10:07.433Z,52.96
2023-10-04T19:13:30.025Z,52.64
2023-10-04T19:16:35.441Z,52.73
2023-10-04T19:19:42.016Z,52.55
2023-10-04T19:22:45.497Z,52.75
2023-10-04T19:25:50.555Z,53.03
2023-10-04T19:28:56.042Z,53.02
2023-10-04T19:32:10.707Z,52.81
2023-10-04T19:35:18.699Z,52.97
2023-10-04T19:38:22.057Z,53.01
2023-10-04T19:41:27.530Z,52.99
2023-10-04T19:44:35.163Z,52.96
2023-10-04T19:47:48.696Z,53.25
2023-10-04T19:51:01.103Z,53.06
2023-10-04T19:54:04.473Z,53.17
2023-10-04T19:57:18.045Z,53.17
2023-10-04T20:00:28.329Z,52.96
2023-10-04T20:03:45.128Z,53.16
2023-10-04T20:06:47.835Z,53.06
2023-10-04T20:09:50.612Z,53.05
2023-10-04T20:12:59.231Z,53.16
2023-10-04T20:16:09.499Z,52.98
2023-10-04T20:19:12.197Z,53.42
2023-10-04T20:22:14.966Z,53.14
2023-10-04T20:25:18.775Z,53.06
2023-10-04T20:28:21.536Z,53.27
2023-10-04T20:31:26.551Z,53.38
2023-10-04T20:34:30.054Z,53.43
2023-10-04T20:37:32.804Z,53.22
2023-10-04T20:40:35.753Z,53.36
2023-10-04T20:43:38.459Z,53.49
2023-10-04T20:46:42.488Z,53.28
2023-10-04T20:49:46.041Z,53.26
2023-10-04T20:52:49.065Z,53.20
2023-10-04T20:55:52.048Z,53.56
2023-10-04T20:58:55.647Z,53.17
2023-10-04T21:01:59.710Z,53.35
2023-10-04T21:05:02.981Z,53.47
2023-10-04T21:08:09.834Z,53.17
2023-10-04T21:11:13.302Z,53.36
2023-10-04T21:14:16.282Z,53.32
2023-10-04T21:17:20.558Z,53.24
2023-10-04T21:20:23.172Z,53.66
2023-10-04T21:23:25.855Z,53.17
2023-10-04T21:26:28.556Z,53.48
2023-10-04T21:29:33.309Z,53.17
2023-10-04T21:32:40.483Z,53.27
2023-10-04T21:35:44.319Z,53.12
2023-10-04T21:38:50.085Z,53.50
2023-10-04T21:41:57.301Z,53.24
2023-10-04T21:45:05.325Z,53.53
2023-10-04T21:48:18.313Z,53.39
2023-10-04T21:51:36.425Z,53.14
2023-10-04T21:54:39.329Z,53.56
2023-10-04T21:57:43.068Z,53.52
2023-10-04T22:00:46.740Z,53.21
2023-10-04T22:03:52.793Z,53.48
2023-10-04T22:07:06.583Z,53.67
2023-10-04T22:10:13.873Z,53.12
2023-10-04T22:13:16.443Z,53.21
2023-10-04T22:16:20.145Z,53.27
2023-10-04T22:19:24.513Z,53.29
2023-10-04T22:22:27.129Z,53.19
2023-10-04T22:25:29.800Z,53.54
2023-10-04T22:28:32.826Z,53.13
2023-10-04T22:31:35.724Z,53.19
2023-10-04T22:34:39.670Z,53.14
2023-10-04T22:37:44.146Z,53.36
2023-10-04T22:40:48.880Z,52.73
2023-10-04T22:43:51.774Z,53.40
2023-10-04T22:46:55.646Z,53.13
2023-10-04T22:49:59.962Z,53.43
2023-10-04T22:53:03.919Z,53.15
2023-10-04T22:56:08.450Z,53.31
2023-10-04T22:59:13.629Z,53.29
2023-10-04T23:02:17.588Z,53.19
2023-10-04T23:05:21.706Z,53.36
2023-10-04T23:08:26.104Z,53.03
2023-10-04T23:11:29.460Z,53.15
2023-10-04T23:14:35.862Z,53.32
2023-10-04T23:17:39.670Z,53.53
2023-10-04T23:20:49.073Z,53.18
2023-10-04T23:23:53.981Z,53.11
2023-10-04T23:27:00.838Z,53.50
2023-10-04T23:30:09.543Z,53.42
2023-10-04T23:33:18.823Z,53.51
2023-10-04T23:36:26.186Z,53.46
2023-10-04T23:39:30.760Z,53.42
2023-10-04T23:42:36.259Z,53.30
2023-10-04T23:45:39.483Z,53.34
2023-10-04T23:48:42.573Z,53.17
2023-10-04T23:51:48.970Z,53.06
2023-10-04T23:54:56.434Z,52.98
2023-10-04T23:58:00.671Z,53.43
